sensor_id;sensor_type;location;lat;lon;timestamp;P1;durP1;ratioP1;P2;durP2;ratioP2
29044;SDS011;16133;49.486;12.176;2024-01-15T00:01:41;83.88;;;25.77;;
29044;SDS011;16133;49.486;12.176;2024-01-15T00:04:07;81.43;;;25.50;;
29044;SDS011;16133;49.486;12.176;2024-01-15T00:06:32;81.70;;;25.00;;
29044;SDS011;16133;49.486;12.176;2024-01-15T00:08:58;81.38;;;25.90;;
29044;SDS011;16133;49.486;12.176;2024-01-15T00:11:24;75.43;;;24.55;;
29044;SDS011;16133;49.486;12.176;2024-01-15T00:13:49;81.95;;;26.20;;
29044;SDS011;16133;49.486;12.176;2024-01-15T00:16:14;89.22;;;25.45;;
29044;SDS011;16133;49.486;12.176;2024-01-15T00:18:40;83.45;;;25.63;;
29044;SDS011;16133;49.486;12.176;2024-01-15T00:21:05;77.57;;;24.95;;
29044;SDS011;16133;49.486;12.176;2024-01-15T00:23:30;75.05;;;23.58;;
29044;SDS011;16133;49.486;12.176;2024-01-15T00:25:56;76.30;;;23.58;;
29044;SDS011;16133;49.486;12.176;2024-01-15T00:28:21;72.55;;;23.00;;
29044;SDS011;16133;49.486;12.176;2024-01-15T00:30:46;68.53;;;23.27;;
29044;SDS011;16133;49.486;12.176;2024-01-15T00:33:12;74.65;;;22.00;;
29044;SDS011;16133;49.486;12.176;2024-01-15T00:35:39;70.38;;;22.15;;
29044;SDS011;16133;49.486;12.176;2024-01-15T00:38:05;60.47;;;20.25;;
29044;SDS011;16133;49.486;12.176;2024-01-15T00:40:30;65.18;;;21.70;;
29044;SDS011;16133;49.486;12.176;2024-01-15T00:42:55;60.22;;;20.58;;
29044;SDS011;16133;49.486;12.176;2024-01-15T00:45:20;60.47;;;21.20;;
29044;SDS011;16133;49.486;12.176;2024-01-15T00:47:46;66.07;;;19.58;;
29044;SDS011;16133;49.486;12.176;2024-01-15T00:50:12;58.83;;;19.20;;
29044;SDS011;16133;49.486;12.176;2024-01-15T00:52:37;62.25;;;21.45;;
29044;SDS011;16133;49.486;12.176;2024-01-15T00:55:03;57.80;;;18.92;;
29044;SDS011;16133;49.486;12.176;2024-01-15T00:57:29;65.90;;;21.23;;
29044;SDS011;16133;49.486;12.176;2024-01-15T00:59:54;70.22;;;20.35;;
29044;SDS011;16133;49.486;12.176;2024-01-15T01:02:19;67.85;;;19.83;;
29044;SDS011;16133;49.486;12.176;2024-01-15T01:04:45;54.75;;;18.20;;
29044;SDS011;16133;49.486;12.176;2024-01-15T01:07:10;64.05;;;20.25;;
29044;SDS011;16133;49.486;12.176;2024-01-15T01:09:35;64.60;;;18.58;;
29044;SDS011;16133;49.486;12.176;2024-01-15T01:12:01;51.45;;;19.40;;
29044;SDS011;16133;49.486;12.176;2024-01-15T01:14:26;66.85;;;20.75;;
29044;SDS011;16133;49.486;12.176;2024-01-15T01:16:51;56.75;;;18.27;;
29044;SDS011;16133;49.486;12.176;2024-01-15T01:19:17;60.90;;;18.40;;
29044;SDS011;16133;49.486;12.176;2024-01-15T01:21:42;58.10;;;18.70;;
29044;SDS011;16133;49.486;12.176;2024-01-15T01:24:07;65.95;;;17.95;;
29044;SDS011;16133;49.486;12.176;2024-01-15T01:26:33;59.92;;;19.40;;
29044;SDS011;16133;49.486;12.176;2024-01-15T01:28:58;73.05;;;22.05;;
29044;SDS011;16133;49.486;12.176;2024-01-15T01:31:24;69.72;;;20.33;;
29044;SDS011;16133;49.486;12.176;2024-01-15T01:33:49;69.53;;;20.48;;
29044;SDS011;16133;49.486;12.176;2024-01-15T01:36:15;60.92;;;19.90;;
29044;SDS011;16133;49.486;12.176;2024-01-15T01:38:40;67.47;;;19.95;;
29044;SDS011;16133;49.486;12.176;2024-01-15T01:41:06;65.25;;;20.15;;
29044;SDS011;16133;49.486;12.176;2024-01-15T01:43:32;66.45;;;20.55;;
29044;SDS011;16133;49.486;12.176;2024-01-15T01:45:57;64.15;;;20.83;;
29044;SDS011;16133;49.486;12.176;2024-01-15T01:48:25;62.97;;;20.20;;
29044;SDS011;16133;49.486;12.176;2024-01-15T01:50:51;70.15;;;19.65;;
29044;SDS011;16133;49.486;12.176;2024-01-15T01:53:18;60.28;;;18.98;;
29044;SDS011;16133;49.486;12.176;2024-01-15T01:55:45;60.40;;;19.45;;
29044;SDS011;16133;49.486;12.176;2024-01-15T01:58:12;59.80;;;17.75;;
29044;SDS011;16133;49.486;12.176;2024-01-15T02:00:37;57.33;;;18.10;;
29044;SDS011;16133;49.486;12.176;2024-01-15T02:03:03;69.50;;;20.88;;
29044;SDS011;16133;49.486;12.176;2024-01-15T02:05:28;62.85;;;19.13;;
29044;SDS011;16133;49.486;12.176;2024-01-15T02:07:55;73.47;;;20.38;;
29044;SDS011;16133;49.486;12.176;2024-01-15T02:10:20;59.35;;;20.25;;
29044;SDS011;16133;49.486;12.176;2024-01-15T02:12:46;57.72;;;19.73;;
29044;SDS011;16133;49.486;12.176;2024-01-15T02:15:13;63.58;;;18.67;;
29044;SDS011;16133;49.486;12.176;2024-01-15T02:20:23;69.88;;;21.42;;
29044;SDS011;16133;49.486;12.176;2024-01-15T02:22:49;65.25;;;19.77;;
29044;SDS011;16133;49.486;12.176;2024-01-15T02:25:14;68.55;;;19.13;;
29044;SDS011;16133;49.486;12.176;2024-01-15T02:27:39;64.78;;;19.80;;
29044;SDS011;16133;49.486;12.176;2024-01-15T02:30:06;70.00;;;20.85;;
29044;SDS011;16133;49.486;12.176;2024-01-15T02:32:34;69.88;;;21.08;;
29044;SDS011;16133;49.486;12.176;2024-01-15T02:35:00;67.35;;;18.77;;
29044;SDS011;16133;49.486;12.176;2024-01-15T02:37:25;72.00;;;22.38;;
29044;SDS011;16133;49.486;12.176;2024-01-15T02:39:50;70.03;;;19.42;;
29044;SDS011;16133;49.486;12.176;2024-01-15T02:42:16;59.97;;;18.33;;
29044;SDS011;16133;49.486;12.176;2024-01-15T02:44:41;63.55;;;19.17;;
29044;SDS011;16133;49.486;12.176;2024-01-15T02:47:06;64.40;;;19.67;;
29044;SDS011;16133;49.486;12.176;2024-01-15T02:49:32;66.00;;;18.92;;
29044;SDS011;16133;49.486;12.176;2024-01-15T02:51:57;64.38;;;18.42;;
29044;SDS011;16133;49.486;12.176;2024-01-15T02:54:23;55.40;;;17.83;;
29044;SDS011;16133;49.486;12.176;2024-01-15T02:56:48;62.42;;;18.30;;
29044;SDS011;16133;49.486;12.176;2024-01-15T02:59:13;66.60;;;18.98;;
29044;SDS011;16133;49.486;12.176;2024-01-15T03:01:39;58.22;;;18.38;;
29044;SDS011;16133;49.486;12.176;2024-01-15T03:04:04;55.22;;;17.20;;
29044;SDS011;16133;49.486;12.176;2024-01-15T03:06:29;62.88;;;17.85;;
29044;SDS011;16133;49.486;12.176;2024-01-15T03:08:55;55.92;;;16.85;;
29044;SDS011;16133;49.486;12.176;2024-01-15T03:11:20;64.28;;;18.38;;
29044;SDS011;16133;49.486;12.176;2024-01-15T03:13:45;58.03;;;16.95;;
29044;SDS011;16133;49.486;12.176;2024-01-15T03:16:11;70.53;;;18.30;;
29044;SDS011;16133;49.486;12.176;2024-01-15T03:18:36;56.92;;;18.40;;
29044;SDS011;16133;49.486;12.176;2024-01-15T03:21:01;63.95;;;19.85;;
29044;SDS011;16133;49.486;12.176;2024-01-15T03:23:27;63.25;;;17.15;;
29044;SDS011;16133;49.486;12.176;2024-01-15T03:25:52;60.33;;;18.10;;
29044;SDS011;16133;49.486;12.176;2024-01-15T03:28:18;55.50;;;16.92;;
29044;SDS011;16133;49.486;12.176;2024-01-15T03:30:43;56.85;;;18.42;;
29044;SDS011;16133;49.486;12.176;2024-01-15T03:33:08;60.42;;;17.98;;
29044;SDS011;16133;49.486;12.176;2024-01-15T03:35:34;64.78;;;18.67;;
29044;SDS011;16133;49.486;12.176;2024-01-15T03:37:59;53.97;;;17.45;;
29044;SDS011;16133;49.486;12.176;2024-01-15T03:40:25;68.38;;;18.80;;
29044;SDS011;16133;49.486;12.176;2024-01-15T03:42:50;51.55;;;16.30;;
29044;SDS011;16133;49.486;12.176;2024-01-15T03:45:16;51.80;;;15.75;;
29044;SDS011;16133;49.486;12.176;2024-01-15T03:47:41;58.38;;;16.67;;
29044;SDS011;16133;49.486;12.176;2024-01-15T03:50:07;56.30;;;16.83;;
29044;SDS011;16133;49.486;12.176;2024-01-15T03:52:32;56.58;;;16.23;;
29044;SDS011;16133;49.486;12.176;2024-01-15T03:54:58;56.90;;;16.42;;
29044;SDS011;16133;49.486;12.176;2024-01-15T03:57:23;50.05;;;16.83;;
29044;SDS011;16133;49.486;12.176;2024-01-15T03:59:49;56.55;;;17.60;;
29044;SDS011;16133;49.486;12.176;2024-01-15T04:02:14;55.35;;;16.55;;
29044;SDS011;16133;49.486;12.176;2024-01-15T04:04:42;56.83;;;16.48;;
29044;SDS011;16133;49.486;12.176;2024-01-15T04:07:11;60.58;;;16.75;;
29044;SDS011;16133;49.486;12.176;2024-01-15T04:09:37;55.83;;;15.90;;
29044;SDS011;16133;49.486;12.176;2024-01-15T04:12:03;49.10;;;15.60;;
29044;SDS011;16133;49.486;12.176;2024-01-15T04:14:28;54.78;;;16.23;;
29044;SDS011;16133;49.486;12.176;2024-01-15T04:16:53;46.55;;;14.90;;
29044;SDS011;16133;49.486;12.176;2024-01-15T04:19:19;51.70;;;14.55;;
29044;SDS011;16133;49.486;12.176;2024-01-15T04:21:44;51.83;;;14.82;;
29044;SDS011;16133;49.486;12.176;2024-01-15T04:24:10;53.53;;;15.90;;
29044;SDS011;16133;49.486;12.176;2024-01-15T04:26:35;41.35;;;14.25;;
29044;SDS011;16133;49.486;12.176;2024-01-15T04:29:00;49.72;;;14.90;;
29044;SDS011;16133;49.486;12.176;2024-01-15T04:31:26;52.75;;;14.80;;
29044;SDS011;16133;49.486;12.176;2024-01-15T04:33:54;48.00;;;14.93;;
29044;SDS011;16133;49.486;12.176;2024-01-15T04:36:19;44.13;;;14.57;;
29044;SDS011;16133;49.486;12.176;2024-01-15T04:38:45;45.88;;;14.38;;
29044;SDS011;16133;49.486;12.176;2024-01-15T04:41:13;39.75;;;14.45;;
29044;SDS011;16133;49.486;12.176;2024-01-15T04:43:39;48.58;;;15.38;;
29044;SDS011;16133;49.486;12.176;2024-01-15T04:46:08;45.45;;;13.75;;
29044;SDS011;16133;49.486;12.176;2024-01-15T04:48:33;47.83;;;14.15;;
29044;SDS011;16133;49.486;12.176;2024-01-15T04:50:58;50.53;;;14.25;;
29044;SDS011;16133;49.486;12.176;2024-01-15T04:53:24;42.70;;;13.43;;
29044;SDS011;16133;49.486;12.176;2024-01-15T04:55:50;50.90;;;14.73;;
29044;SDS011;16133;49.486;12.176;2024-01-15T04:58:15;50.17;;;14.85;;
29044;SDS011;16133;49.486;12.176;2024-01-15T05:00:40;39.05;;;12.80;;
29044;SDS011;16133;49.486;12.176;2024-01-15T05:03:06;43.75;;;13.13;;
29044;SDS011;16133;49.486;12.176;2024-01-15T05:05:31;49.17;;;15.50;;
29044;SDS011;16133;49.486;12.176;2024-01-15T05:07:56;47.33;;;14.75;;
29044;SDS011;16133;49.486;12.176;2024-01-15T05:10:22;41.10;;;12.95;;
29044;SDS011;16133;49.486;12.176;2024-01-15T05:12:47;47.28;;;13.85;;
29044;SDS011;16133;49.486;12.176;2024-01-15T05:15:12;44.30;;;13.73;;
29044;SDS011;16133;49.486;12.176;2024-01-15T05:17:38;43.55;;;12.75;;
29044;SDS011;16133;49.486;12.176;2024-01-15T05:20:03;48.72;;;14.40;;
29044;SDS011;16133;49.486;12.176;2024-01-15T05:22:29;40.22;;;13.48;;
29044;SDS011;16133;49.486;12.176;2024-01-15T05:24:55;47.00;;;14.13;;
29044;SDS011;16133;49.486;12.176;2024-01-15T05:27:20;40.95;;;13.05;;
29044;SDS011;16133;49.486;12.176;2024-01-15T05:29:45;49.33;;;13.60;;
29044;SDS011;16133;49.486;12.176;2024-01-15T05:32:11;44.78;;;14.85;;
29044;SDS011;16133;49.486;12.176;2024-01-15T05:34:36;38.75;;;12.95;;
29044;SDS011;16133;49.486;12.176;2024-01-15T05:37:01;35.40;;;12.65;;
29044;SDS011;16133;49.486;12.176;2024-01-15T05:39:27;38.65;;;12.15;;
29044;SDS011;16133;49.486;12.176;2024-01-15T05:41:52;43.80;;;13.35;;
29044;SDS011;16133;49.486;12.176;2024-01-15T05:44:18;40.13;;;11.60;;
29044;SDS011;16133;49.486;12.176;2024-01-15T05:46:43;40.28;;;11.50;;
29044;SDS011;16133;49.486;12.176;2024-01-15T05:49:08;32.38;;;10.65;;
29044;SDS011;16133;49.486;12.176;2024-01-15T05:51:34;33.10;;;10.55;;
29044;SDS011;16133;49.486;12.176;2024-01-15T05:53:59;60.33;;;17.65;;
29044;SDS011;16133;49.486;12.176;2024-01-15T05:56:25;38.72;;;12.60;;
29044;SDS011;16133;49.486;12.176;2024-01-15T05:58:51;34.35;;;11.68;;
29044;SDS011;16133;49.486;12.176;2024-01-15T06:01:17;35.75;;;11.30;;
29044;SDS011;16133;49.486;12.176;2024-01-15T06:03:42;38.90;;;11.73;;
29044;SDS011;16133;49.486;12.176;2024-01-15T06:06:08;32.97;;;10.52;;
29044;SDS011;16133;49.486;12.176;2024-01-15T06:08:34;36.70;;;11.55;;
29044;SDS011;16133;49.486;12.176;2024-01-15T06:10:59;31.02;;;10.20;;
29044;SDS011;16133;49.486;12.176;2024-01-15T06:13:24;32.20;;;11.48;;
29044;SDS011;16133;49.486;12.176;2024-01-15T06:15:50;32.20;;;10.13;;
29044;SDS011;16133;49.486;12.176;2024-01-15T06:18:16;38.90;;;11.90;;
29044;SDS011;16133;49.486;12.176;2024-01-15T06:20:41;38.92;;;10.93;;
29044;SDS011;16133;49.486;12.176;2024-01-15T06:23:06;32.75;;;10.93;;
29044;SDS011;16133;49.486;12.176;2024-01-15T06:25:32;33.85;;;10.73;;
29044;SDS011;16133;49.486;12.176;2024-01-15T06:27:57;34.10;;;10.38;;
29044;SDS011;16133;49.486;12.176;2024-01-15T06:30:22;34.50;;;11.88;;
29044;SDS011;16133;49.486;12.176;2024-01-15T06:32:48;32.13;;;9.70;;
29044;SDS011;16133;49.486;12.176;2024-01-15T06:35:13;37.50;;;10.60;;
29044;SDS011;16133;49.486;12.176;2024-01-15T06:37:39;36.22;;;12.10;;
29044;SDS011;16133;49.486;12.176;2024-01-15T06:40:04;39.67;;;11.75;;
29044;SDS011;16133;49.486;12.176;2024-01-15T06:42:31;28.63;;;10.00;;
29044;SDS011;16133;49.486;12.176;2024-01-15T06:44:56;35.45;;;10.35;;
29044;SDS011;16133;49.486;12.176;2024-01-15T06:47:21;30.05;;;10.82;;
29044;SDS011;16133;49.486;12.176;2024-01-15T06:49:47;30.52;;;10.10;;
29044;SDS011;16133;49.486;12.176;2024-01-15T06:52:12;39.45;;;12.25;;
29044;SDS011;16133;49.486;12.176;2024-01-15T06:54:37;35.92;;;10.25;;
29044;SDS011;16133;49.486;12.176;2024-01-15T06:57:03;37.45;;;10.05;;
29044;SDS011;16133;49.486;12.176;2024-01-15T06:59:29;40.65;;;11.48;;
29044;SDS011;16133;49.486;12.176;2024-01-15T07:01:54;30.83;;;10.32;;
29044;SDS011;16133;49.486;12.176;2024-01-15T07:04:20;42.30;;;10.73;;
29044;SDS011;16133;49.486;12.176;2024-01-15T07:06:45;32.92;;;10.30;;
29044;SDS011;16133;49.486;12.176;2024-01-15T07:09:13;34.92;;;11.40;;
29044;SDS011;16133;49.486;12.176;2024-01-15T07:11:38;29.08;;;10.70;;
29044;SDS011;16133;49.486;12.176;2024-01-15T07:14:03;29.38;;;10.43;;
29044;SDS011;16133;49.486;12.176;2024-01-15T07:16:29;37.20;;;12.05;;
29044;SDS011;16133;49.486;12.176;2024-01-15T07:18:54;32.60;;;11.35;;
29044;SDS011;16133;49.486;12.176;2024-01-15T07:21:20;32.63;;;10.50;;
29044;SDS011;16133;49.486;12.176;2024-01-15T07:23:45;34.30;;;10.65;;
29044;SDS011;16133;49.486;12.176;2024-01-15T07:26:10;35.30;;;11.07;;
29044;SDS011;16133;49.486;12.176;2024-01-15T07:28:36;37.35;;;11.73;;
29044;SDS011;16133;49.486;12.176;2024-01-15T07:31:01;40.70;;;11.13;;
29044;SDS011;16133;49.486;12.176;2024-01-15T07:33:28;31.40;;;10.52;;
29044;SDS011;16133;49.486;12.176;2024-01-15T07:35:54;31.92;;;10.32;;
29044;SDS011;16133;49.486;12.176;2024-01-15T07:38:19;33.13;;;11.68;;
29044;SDS011;16133;49.486;12.176;2024-01-15T07:40:44;36.05;;;10.25;;
29044;SDS011;16133;49.486;12.176;2024-01-15T07:43:14;31.73;;;12.57;;
29044;SDS011;16133;49.486;12.176;2024-01-15T07:45:39;31.27;;;10.88;;
29044;SDS011;16133;49.486;12.176;2024-01-15T07:48:05;35.20;;;11.38;;
29044;SDS011;16133;49.486;12.176;2024-01-15T07:50:30;31.83;;;11.07;;
29044;SDS011;16133;49.486;12.176;2024-01-15T07:52:56;31.05;;;11.27;;
29044;SDS011;16133;49.486;12.176;2024-01-15T07:55:21;31.05;;;11.00;;
29044;SDS011;16133;49.486;12.176;2024-01-15T07:57:46;40.35;;;11.25;;
29044;SDS011;16133;49.486;12.176;2024-01-15T08:00:12;29.27;;;10.43;;
29044;SDS011;16133;49.486;12.176;2024-01-15T08:02:38;28.85;;;9.43;;
29044;SDS011;16133;49.486;12.176;2024-01-15T08:05:03;32.88;;;9.65;;
29044;SDS011;16133;49.486;12.176;2024-01-15T08:07:29;33.83;;;10.57;;
29044;SDS011;16133;49.486;12.176;2024-01-15T08:09:54;31.45;;;11.70;;
29044;SDS011;16133;49.486;12.176;2024-01-15T08:12:20;28.10;;;9.77;;
29044;SDS011;16133;49.486;12.176;2024-01-15T08:14:45;31.48;;;9.90;;
29044;SDS011;16133;49.486;12.176;2024-01-15T08:17:10;26.52;;;10.23;;
29044;SDS011;16133;49.486;12.176;2024-01-15T08:19:36;26.17;;;10.18;;
29044;SDS011;16133;49.486;12.176;2024-01-15T08:22:01;28.90;;;9.30;;
29044;SDS011;16133;49.486;12.176;2024-01-15T08:24:27;27.60;;;9.50;;
29044;SDS011;16133;49.486;12.176;2024-01-15T08:26:53;35.95;;;10.55;;
29044;SDS011;16133;49.486;12.176;2024-01-15T08:29:19;31.80;;;10.63;;
29044;SDS011;16133;49.486;12.176;2024-01-15T08:31:46;36.88;;;12.38;;
29044;SDS011;16133;49.486;12.176;2024-01-15T08:34:11;47.65;;;15.38;;
29044;SDS011;16133;49.486;12.176;2024-01-15T08:36:37;45.22;;;14.45;;
29044;SDS011;16133;49.486;12.176;2024-01-15T08:39:02;49.78;;;15.32;;
29044;SDS011;16133;49.486;12.176;2024-01-15T08:41:29;34.97;;;12.68;;
29044;SDS011;16133;49.486;12.176;2024-01-15T08:43:55;42.30;;;13.93;;
29044;SDS011;16133;49.486;12.176;2024-01-15T08:46:21;39.35;;;13.55;;
29044;SDS011;16133;49.486;12.176;2024-01-15T08:48:46;37.40;;;12.52;;
29044;SDS011;16133;49.486;12.176;2024-01-15T08:51:11;39.95;;;13.85;;
29044;SDS011;16133;49.486;12.176;2024-01-15T08:53:37;30.48;;;12.57;;
29044;SDS011;16133;49.486;12.176;2024-01-15T08:56:02;31.45;;;11.48;;
29044;SDS011;16133;49.486;12.176;2024-01-15T08:58:28;28.33;;;10.10;;
29044;SDS011;16133;49.486;12.176;2024-01-15T09:00:53;31.95;;;11.13;;
29044;SDS011;16133;49.486;12.176;2024-01-15T09:03:18;30.55;;;12.05;;
29044;SDS011;16133;49.486;12.176;2024-01-15T09:05:44;31.73;;;13.68;;
29044;SDS011;16133;49.486;12.176;2024-01-15T09:08:09;29.10;;;13.93;;
29044;SDS011;16133;49.486;12.176;2024-01-15T09:10:35;28.27;;;11.95;;
29044;SDS011;16133;49.486;12.176;2024-01-15T09:13:00;28.60;;;10.00;;
29044;SDS011;16133;49.486;12.176;2024-01-15T09:15:25;31.77;;;10.48;;
29044;SDS011;16133;49.486;12.176;2024-01-15T09:17:51;28.45;;;12.23;;
29044;SDS011;16133;49.486;12.176;2024-01-15T09:20:16;28.60;;;11.55;;
29044;SDS011;16133;49.486;12.176;2024-01-15T09:22:42;32.13;;;12.82;;
29044;SDS011;16133;49.486;12.176;2024-01-15T09:25:08;23.73;;;9.50;;
29044;SDS011;16133;49.486;12.176;2024-01-15T09:27:34;27.13;;;9.95;;
29044;SDS011;16133;49.486;12.176;2024-01-15T09:30:00;29.27;;;11.48;;
29044;SDS011;16133;49.486;12.176;2024-01-15T09:32:26;22.85;;;10.07;;
29044;SDS011;16133;49.486;12.176;2024-01-15T09:34:51;24.98;;;11.25;;
29044;SDS011;16133;49.486;12.176;2024-01-15T09:37:17;29.33;;;12.40;;
29044;SDS011;16133;49.486;12.176;2024-01-15T09:39:42;26.25;;;11.00;;
29044;SDS011;16133;49.486;12.176;2024-01-15T09:42:08;25.70;;;9.93;;
29044;SDS011;16133;49.486;12.176;2024-01-15T09:44:35;26.58;;;10.25;;
29044;SDS011;16133;49.486;12.176;2024-01-15T09:47:01;24.08;;;10.20;;
29044;SDS011;16133;49.486;12.176;2024-01-15T09:49:27;18.92;;;8.07;;
29044;SDS011;16133;49.486;12.176;2024-01-15T09:51:53;24.35;;;9.20;;
29044;SDS011;16133;49.486;12.176;2024-01-15T09:54:21;19.30;;;7.53;;
29044;SDS011;16133;49.486;12.176;2024-01-15T09:56:48;19.92;;;8.70;;
29044;SDS011;16133;49.486;12.176;2024-01-15T09:59:17;21.75;;;9.18;;
29044;SDS011;16133;49.486;12.176;2024-01-15T10:01:44;16.58;;;7.47;;
29044;SDS011;16133;49.486;12.176;2024-01-15T10:04:13;20.10;;;7.80;;
29044;SDS011;16133;49.486;12.176;2024-01-15T10:06:39;19.92;;;8.02;;
29044;SDS011;16133;49.486;12.176;2024-01-15T10:09:08;23.00;;;8.20;;
29044;SDS011;16133;49.486;12.176;2024-01-15T10:11:34;18.33;;;8.00;;
29044;SDS011;16133;49.486;12.176;2024-01-15T10:14:02;22.63;;;8.43;;
29044;SDS011;16133;49.486;12.176;2024-01-15T10:16:30;22.48;;;8.20;;
29044;SDS011;16133;49.486;12.176;2024-01-15T10:18:55;20.65;;;8.25;;
29044;SDS011;16133;49.486;12.176;2024-01-15T10:21:20;21.63;;;9.55;;
29044;SDS011;16133;49.486;12.176;2024-01-15T10:23:46;21.80;;;10.30;;
29044;SDS011;16133;49.486;12.176;2024-01-15T10:26:11;18.08;;;7.93;;
29044;SDS011;16133;49.486;12.176;2024-01-15T10:28:37;18.88;;;8.93;;
29044;SDS011;16133;49.486;12.176;2024-01-15T10:31:02;20.48;;;9.18;;
29044;SDS011;16133;49.486;12.176;2024-01-15T10:33:28;23.23;;;10.20;;
29044;SDS011;16133;49.486;12.176;2024-01-15T10:35:54;26.23;;;11.55;;
29044;SDS011;16133;49.486;12.176;2024-01-15T10:38:20;19.75;;;8.18;;
29044;SDS011;16133;49.486;12.176;2024-01-15T10:40:47;22.92;;;8.65;;
29044;SDS011;16133;49.486;12.176;2024-01-15T10:43:15;19.10;;;9.32;;
29044;SDS011;16133;49.486;12.176;2024-01-15T10:45:42;24.70;;;9.15;;
29044;SDS011;16133;49.486;12.176;2024-01-15T10:48:10;18.75;;;7.50;;
29044;SDS011;16133;49.486;12.176;2024-01-15T10:50:35;24.30;;;9.82;;
29044;SDS011;16133;49.486;12.176;2024-01-15T10:53:01;23.80;;;10.95;;
29044;SDS011;16133;49.486;12.176;2024-01-15T10:55:28;25.90;;;11.57;;
29044;SDS011;16133;49.486;12.176;2024-01-15T10:57:54;19.92;;;9.02;;
29044;SDS011;16133;49.486;12.176;2024-01-15T11:00:21;21.55;;;8.93;;
29044;SDS011;16133;49.486;12.176;2024-01-15T11:02:47;19.35;;;8.68;;
29044;SDS011;16133;49.486;12.176;2024-01-15T11:05:12;24.30;;;10.90;;
29044;SDS011;16133;49.486;12.176;2024-01-15T11:07:39;26.27;;;12.57;;
29044;SDS011;16133;49.486;12.176;2024-01-15T11:10:06;19.98;;;9.65;;
29044;SDS011;16133;49.486;12.176;2024-01-15T11:12:35;22.48;;;8.48;;
29044;SDS011;16133;49.486;12.176;2024-01-15T11:15:01;17.90;;;7.35;;
29044;SDS011;16133;49.486;12.176;2024-01-15T11:20:30;15.25;;;6.28;;
29044;SDS011;16133;49.486;12.176;2024-01-15T11:22:57;14.63;;;5.20;;
29044;SDS011;16133;49.486;12.176;2024-01-15T11:25:24;13.55;;;5.93;;
29044;SDS011;16133;49.486;12.176;2024-01-15T11:28:00;13.40;;;6.20;;
29044;SDS011;16133;49.486;12.176;2024-01-15T11:30:25;13.05;;;4.85;;
29044;SDS011;16133;49.486;12.176;2024-01-15T11:32:51;17.80;;;5.80;;
29044;SDS011;16133;49.486;12.176;2024-01-15T11:35:17;42.05;;;15.63;;
29044;SDS011;16133;49.486;12.176;2024-01-15T11:38:02;29.73;;;11.27;;
29044;SDS011;16133;49.486;12.176;2024-01-15T11:42:58;18.75;;;8.52;;
29044;SDS011;16133;49.486;12.176;2024-01-15T11:45:24;17.30;;;7.45;;
29044;SDS011;16133;49.486;12.176;2024-01-15T11:50:44;16.15;;;6.95;;
29044;SDS011;16133;49.486;12.176;2024-01-15T11:53:32;19.88;;;7.65;;
29044;SDS011;16133;49.486;12.176;2024-01-15T11:56:19;18.98;;;7.40;;
29044;SDS011;16133;49.486;12.176;2024-01-15T11:58:47;14.82;;;6.20;;
29044;SDS011;16133;49.486;12.176;2024-01-15T12:01:12;17.33;;;7.05;;
29044;SDS011;16133;49.486;12.176;2024-01-15T12:03:38;16.60;;;6.63;;
29044;SDS011;16133;49.486;12.176;2024-01-15T12:06:06;17.88;;;7.53;;
29044;SDS011;16133;49.486;12.176;2024-01-15T12:08:32;17.60;;;7.82;;
29044;SDS011;16133;49.486;12.176;2024-01-15T12:10:57;19.48;;;7.30;;
29044;SDS011;16133;49.486;12.176;2024-01-15T12:13:23;15.65;;;7.80;;
29044;SDS011;16133;49.486;12.176;2024-01-15T12:15:48;15.80;;;7.07;;
29044;SDS011;16133;49.486;12.176;2024-01-15T12:18:15;19.35;;;6.80;;
29044;SDS011;16133;49.486;12.176;2024-01-15T12:20:43;16.98;;;7.47;;
29044;SDS011;16133;49.486;12.176;2024-01-15T12:23:11;16.75;;;7.43;;
29044;SDS011;16133;49.486;12.176;2024-01-15T12:25:38;18.77;;;7.75;;
29044;SDS011;16133;49.486;12.176;2024-01-15T12:28:04;15.38;;;7.45;;
29044;SDS011;16133;49.486;12.176;2024-01-15T12:30:31;15.50;;;7.43;;
29044;SDS011;16133;49.486;12.176;2024-01-15T12:33:03;13.13;;;6.22;;
29044;SDS011;16133;49.486;12.176;2024-01-15T12:35:29;13.63;;;6.40;;
29044;SDS011;16133;49.486;12.176;2024-01-15T12:37:55;16.42;;;6.63;;
29044;SDS011;16133;49.486;12.176;2024-01-15T12:40:21;15.25;;;7.18;;
29044;SDS011;16133;49.486;12.176;2024-01-15T12:42:47;17.13;;;6.65;;
29044;SDS011;16133;49.486;12.176;2024-01-15T12:45:12;11.38;;;5.70;;
29044;SDS011;16133;49.486;12.176;2024-01-15T12:47:39;14.10;;;5.95;;
29044;SDS011;16133;49.486;12.176;2024-01-15T12:50:06;15.63;;;6.68;;
29044;SDS011;16133;49.486;12.176;2024-01-15T12:52:33;15.93;;;6.15;;
29044;SDS011;16133;49.486;12.176;2024-01-15T12:54:58;11.52;;;5.70;;
29044;SDS011;16133;49.486;12.176;2024-01-15T12:57:23;11.48;;;5.78;;
29044;SDS011;16133;49.486;12.176;2024-01-15T12:59:49;13.65;;;5.85;;
29044;SDS011;16133;49.486;12.176;2024-01-15T13:02:17;11.48;;;5.97;;
29044;SDS011;16133;49.486;12.176;2024-01-15T13:04:43;11.90;;;5.47;;
29044;SDS011;16133;49.486;12.176;2024-01-15T13:07:08;10.55;;;5.18;;
29044;SDS011;16133;49.486;12.176;2024-01-15T13:09:34;12.93;;;5.63;;
29044;SDS011;16133;49.486;12.176;2024-01-15T13:12:00;9.88;;;4.53;;
29044;SDS011;16133;49.486;12.176;2024-01-15T13:14:27;12.45;;;5.18;;
29044;SDS011;16133;49.486;12.176;2024-01-15T13:16:53;10.20;;;4.60;;
29044;SDS011;16133;49.486;12.176;2024-01-15T13:19:19;10.88;;;4.78;;
29044;SDS011;16133;49.486;12.176;2024-01-15T13:21:44;9.90;;;4.47;;
29044;SDS011;16133;49.486;12.176;2024-01-15T13:24:10;8.98;;;4.72;;
29044;SDS011;16133;49.486;12.176;2024-01-15T13:26:36;10.75;;;4.72;;
29044;SDS011;16133;49.486;12.176;2024-01-15T13:29:04;12.95;;;5.05;;
29044;SDS011;16133;49.486;12.176;2024-01-15T13:31:30;9.90;;;5.07;;
29044;SDS011;16133;49.486;12.176;2024-01-15T13:33:55;9.82;;;4.63;;
29044;SDS011;16133;49.486;12.176;2024-01-15T13:36:27;9.32;;;4.35;;
29044;SDS011;16133;49.486;12.176;2024-01-15T13:38:52;13.23;;;5.00;;
29044;SDS011;16133;49.486;12.176;2024-01-15T13:41:22;13.20;;;4.93;;
29044;SDS011;16133;49.486;12.176;2024-01-15T13:43:50;11.23;;;5.38;;
29044;SDS011;16133;49.486;12.176;2024-01-15T13:46:18;12.75;;;5.38;;
29044;SDS011;16133;49.486;12.176;2024-01-15T13:48:43;14.00;;;5.65;;
29044;SDS011;16133;49.486;12.176;2024-01-15T13:51:09;11.15;;;5.07;;
29044;SDS011;16133;49.486;12.176;2024-01-15T13:53:36;12.07;;;5.60;;
29044;SDS011;16133;49.486;12.176;2024-01-15T13:56:04;11.20;;;4.78;;
29044;SDS011;16133;49.486;12.176;2024-01-15T13:58:30;13.40;;;5.80;;
29044;SDS011;16133;49.486;12.176;2024-01-15T14:00:56;13.20;;;5.28;;
29044;SDS011;16133;49.486;12.176;2024-01-15T14:03:21;11.20;;;4.82;;
29044;SDS011;16133;49.486;12.176;2024-01-15T14:05:47;10.65;;;5.07;;
29044;SDS011;16133;49.486;12.176;2024-01-15T14:08:12;12.43;;;5.03;;
29044;SDS011;16133;49.486;12.176;2024-01-15T14:10:38;13.95;;;6.00;;
29044;SDS011;16133;49.486;12.176;2024-01-15T14:13:03;12.02;;;5.55;;
29044;SDS011;16133;49.486;12.176;2024-01-15T14:15:29;12.57;;;5.43;;
29044;SDS011;16133;49.486;12.176;2024-01-15T14:17:54;10.80;;;5.15;;